createdAt,value
2022-12-12T00:01:44.644Z,13.25
2022-12-12T00:04:12.917Z,13.00
2022-12-12T00:06:41.289Z,14.00
2022-12-12T00:09:09.740Z,13.25
2022-12-12T00:11:38.153Z,12.00
2022-12-12T00:14:06.256Z,13.00
2022-12-12T00:16:34.673Z,13.00
2022-12-12T00:19:02.765Z,13.00
2022-12-12T00:21:31.199Z,13.25
2022-12-12T00:23:59.397Z,13.50
2022-12-12T00:26:30.915Z,13.00
2022-12-12T00:28:59.706Z,14.00
2022-12-12T00:31:29.197Z,13.00
2022-12-12T00:33:57.518Z,13.25
2022-12-12T00:36:29.201Z,13.25
2022-12-12T00:38:57.885Z,14.00
2022-12-12T00:41:26.484Z,13.00
2022-12-12T00:43:54.534Z,14.00
2022-12-12T00:46:25.184Z,14.25
2022-12-12T00:48:58.402Z,14.00
2022-12-12T00:51:28.836Z,14.25
2022-12-12T00:53:59.086Z,13.33
2022-12-12T00:56:28.976Z,15.75
2022-12-12T00:58:56.956Z,13.25
2022-12-12T01:01:29.323Z,13.00
2022-12-12T01:03:59.290Z,15.33
2022-12-12T01:06:28.342Z,13.00
2022-12-12T01:08:57.124Z,14.00
2022-12-12T01:11:25.830Z,14.25
2022-12-12T01:13:55.504Z,14.00
2022-12-12T01:16:24.862Z,13.00
2022-12-12T01:18:54.214Z,14.00
2022-12-12T01:21:22.710Z,13.00
2022-12-12T01:23:51.874Z,13.25
2022-12-12T01:26:22.791Z,13.00
2022-12-12T01:28:51.719Z,13.00
2022-12-12T01:31:20.824Z,13.25
2022-12-12T01:33:48.991Z,14.25
2022-12-12T01:36:19.581Z,14.00
2022-12-12T01:38:49.486Z,15.25
2022-12-12T01:41:19.219Z,14.25
2022-12-12T01:43:48.062Z,14.25
2022-12-12T01:46:29.344Z,14.00
2022-12-12T01:49:24.447Z,13.00
2022-12-12T01:51:56.985Z,14.33
2022-12-12T01:54:28.604Z,14.50
2022-12-12T01:56:59.354Z,14.25
2022-12-12T01:59:27.957Z,15.00
2022-12-12T02:01:57.171Z,15.00
2022-12-12T02:04:26.510Z,15.25
2022-12-12T02:06:56.321Z,14.00
2022-12-12T02:09:25.533Z,14.00
2022-12-12T02:11:57.189Z,14.00
2022-12-12T02:14:34.573Z,14.25
2022-12-12T02:17:11.776Z,13.00
2022-12-12T02:20:08.337Z,15.25
2022-12-12T02:23:15.072Z,14.00
2022-12-12T02:25:58.269Z,14.25
2022-12-12T02:29:15.582Z,13.50
2022-12-12T02:31:58.621Z,14.00
2022-12-12T02:34:32.982Z,14.00
2022-12-12T02:37:26.353Z,14.00
2022-12-12T02:40:04.742Z,13.00
2022-12-12T02:42:45.832Z,13.33
2022-12-12T02:45:28.653Z,12.00
2022-12-12T02:48:03.864Z,12.00
2022-12-12T02:50:33.512Z,12.00
2022-12-12T02:53:01.752Z,14.00
2022-12-12T02:55:35.111Z,13.00
2022-12-12T02:58:05.762Z,13.25
2022-12-12T03:00:50.277Z,12.00
2022-12-12T03:03:59.563Z,12.00
2022-12-12T03:07:12.116Z,13.50
2022-12-12T03:10:07.407Z,13.00
2022-12-12T03:13:03.863Z,13.00
2022-12-12T03:16:21.504Z,12.25
2022-12-12T03:19:01.958Z,12.25
2022-12-12T03:21:52.634Z,13.00
2022-12-12T03:24:41.406Z,12.00
2022-12-12T03:27:14.933Z,13.00
2022-12-12T03:29:48.824Z,13.25
2022-12-12T03:32:22.775Z,12.00
2022-12-12T03:34:58.656Z,12.25
2022-12-12T03:37:33.532Z,12.00
2022-12-12T03:40:07.684Z,12.00
2022-12-12T03:42:48.163Z,13.00
2022-12-12T03:45:46.705Z,12.25
2022-12-12T03:48:24.736Z,13.25
2022-12-12T03:51:01.808Z,12.00
2022-12-12T03:53:40.264Z,12.25
2022-12-12T03:56:17.993Z,12.00
2022-12-12T03:58:53.073Z,12.25
2022-12-12T04:01:35.836Z,12.00
2022-12-12T04:04:17.304Z,12.25
2022-12-12T04:07:01.955Z,12.25
2022-12-12T04:09:49.137Z,12.25
2022-12-12T04:12:55.823Z,12.00
2022-12-12T04:15:24.056Z,13.00
2022-12-12T04:18:23.312Z,12.75
2022-12-12T04:21:35.153Z,12.00
2022-12-12T04:24:24.357Z,13.00
2022-12-12T04:27:09.786Z,13.50
2022-12-12T04:29:50.686Z,13.25
2022-12-12T04:32:31.512Z,13.00
2022-12-12T04:35:06.002Z,13.00
2022-12-12T04:37:43.935Z,12.33
2022-12-12T04:40:20.168Z,12.00
2022-12-12T04:42:55.243Z,13.00
2022-12-12T04:45:29.313Z,12.50
2022-12-12T04:47:59.163Z,13.00
2022-12-12T04:50:29.403Z,14.25
2022-12-12T04:52:59.953Z,13.00
2022-12-12T04:55:33.585Z,13.25
2022-12-12T04:58:04.543Z,14.25
2022-12-12T05:00:58.421Z,13.33
2022-12-12T05:03:37.514Z,13.00
2022-12-12T05:06:15.067Z,13.00
2022-12-12T05:08:46.266Z,13.33
2022-12-12T05:11:18.653Z,13.25
2022-12-12T05:13:49.685Z,12.00
2022-12-12T05:16:33.187Z,14.00
2022-12-12T05:19:02.075Z,13.25
2022-12-12T05:21:30.913Z,13.25
2022-12-12T05:23:59.153Z,14.25
2022-12-12T05:26:30.482Z,14.00
2022-12-12T05:29:05.264Z,13.25
2022-12-12T05:31:35.934Z,13.00
2022-12-12T05:34:04.977Z,13.00
2022-12-12T05:36:35.313Z,13.25
2022-12-12T05:39:03.753Z,12.00
2022-12-12T05:41:32.472Z,13.00
2022-12-12T05:44:00.732Z,13.33
2022-12-12T05:46:29.322Z,13.00
2022-12-12T05:48:57.683Z,14.00
2022-12-12T05:51:26.494Z,12.00
2022-12-12T05:53:54.832Z,12.25
2022-12-12T05:56:24.634Z,12.00
2022-12-12T05:58:52.957Z,13.25
2022-12-12T06:01:23.576Z,12.00
2022-12-12T06:03:51.918Z,13.00
2022-12-12T06:06:21.169Z,13.00
2022-12-12T06:08:49.412Z,13.00
2022-12-12T06:11:18.497Z,12.00
2022-12-12T06:13:46.802Z,12.50
2022-12-12T06:16:17.519Z,13.00
2022-12-12T06:18:51.540Z,13.00
2022-12-12T06:21:21.730Z,13.00
2022-12-12T06:23:50.227Z,13.75
2022-12-12T06:26:20.433Z,12.00
2022-12-12T06:28:49.004Z,13.25
2022-12-12T06:31:18.192Z,12.00
2022-12-12T06:33:46.504Z,12.25
2022-12-12T06:36:24.363Z,13.25
2022-12-12T06:38:55.924Z,12.50
2022-12-12T06:41:26.737Z,13.00
2022-12-12T06:43:55.745Z,13.00
2022-12-12T06:46:26.714Z,13.00
2022-12-12T06:48:57.039Z,13.00
2022-12-12T06:51:33.639Z,14.00
2022-12-12T06:54:01.994Z,13.33
2022-12-12T06:56:31.425Z,14.25
2022-12-12T06:59:00.373Z,13.33
2022-12-12T07:01:29.559Z,13.25
2022-12-12T07:03:58.592Z,13.00
2022-12-12T07:06:27.283Z,13.00
2022-12-12T07:08:58.425Z,13.25
2022-12-12T07:11:29.189Z,12.33
2022-12-12T07:13:58.432Z,13.00
2022-12-12T07:16:27.485Z,13.25
2022-12-12T07:18:55.613Z,13.00
2022-12-12T07:21:25.546Z,14.00
2022-12-12T07:23:53.956Z,13.25
2022-12-12T07:26:23.461Z,13.50
2022-12-12T07:28:52.276Z,14.00
2022-12-12T07:31:28.359Z,14.00
2022-12-12T07:34:02.175Z,13.00
2022-12-12T07:36:31.077Z,14.00
2022-12-12T07:38:59.403Z,13.25
2022-12-12T07:41:28.688Z,14.33
2022-12-12T07:43:57.798Z,13.00
2022-12-12T07:46:26.566Z,13.25
2022-12-12T07:48:54.948Z,13.00
2022-12-12T07:51:24.187Z,13.00
2022-12-12T07:53:52.614Z,13.00
2022-12-12T07:56:21.505Z,14.25
2022-12-12T07:58:49.928Z,13.25
2022-12-12T08:01:24.600Z,14.00
2022-12-12T08:03:54.770Z,14.33
2022-12-12T08:06:24.393Z,14.25
2022-12-12T08:08:53.575Z,14.00
2022-12-12T08:11:24.785Z,14.00
2022-12-12T08:13:54.018Z,13.75
2022-12-12T08:16:32.255Z,14.00
2022-12-12T08:19:00.636Z,14.33
2022-12-12T08:21:29.424Z,14.25
2022-12-12T08:23:59.798Z,14.00
2022-12-12T08:26:29.837Z,13.33
2022-12-12T08:28:58.808Z,13.50
2022-12-12T08:31:27.975Z,13.00
2022-12-12T08:33:57.786Z,14.00
2022-12-12T08:36:31.845Z,13.00
2022-12-12T08:39:27.206Z,14.25
2022-12-12T08:41:55.947Z,13.00
2022-12-12T08:44:24.207Z,14.25
2022-12-12T08:46:53.116Z,14.00
2022-12-12T08:49:21.364Z,14.00
2022-12-12T08:51:51.586Z,14.25
2022-12-12T08:54:20.011Z,14.50
2022-12-12T08:56:48.689Z,14.25
2022-12-12T08:59:17.001Z,15.00
2022-12-12T09:01:45.747Z,14.00
2022-12-12T09:04:13.901Z,15.25
2022-12-12T09:06:45.973Z,14.00
2022-12-12T09:09:14.330Z,14.25
2022-12-12T09:11:42.988Z,16.25
2022-12-12T09:14:11.951Z,15.00
2022-12-12T09:16:40.540Z,16.00
2022-12-12T09:19:08.836Z,15.00
2022-12-12T09:21:38.486Z,15.00
2022-12-12T09:24:07.114Z,15.00
2022-12-12T09:26:37.094Z,15.00
2022-12-12T09:29:06.366Z,15.25
2022-12-12T09:31:37.417Z,16.00
2022-12-12T09:34:05.812Z,15.25
2022-12-12T09:36:34.431Z,14.50
2022-12-12T09:39:03.189Z,15.25
2022-12-12T09:41:32.655Z,16.25
2022-12-12T09:44:01.913Z,16.00
2022-12-12T09:46:35.992Z,16.25
2022-12-12T09:49:10.786Z,17.00
2022-12-12T09:51:40.235Z,16.25
2022-12-12T09:54:13.548Z,17.00
2022-12-12T09:56:53.195Z,21.00
2022-12-12T09:59:33.715Z,17.50
2022-12-12T10:02:29.916Z,18.33
2022-12-12T10:05:01.431Z,19.00
2022-12-12T10:07:51.839Z,16.25
2022-12-12T10:10:37.637Z,18.25
2022-12-12T10:13:15.003Z,18.25
2022-12-12T10:15:55.328Z,18.00
2022-12-12T10:18:23.975Z,20.00
2022-12-12T10:20:56.198Z,17.00
2022-12-12T10:23:46.266Z,18.00
2022-12-12T10:26:26.466Z,19.25
2022-12-12T10:29:20.163Z,19.25
2022-12-12T10:32:28.076Z,19.25
2022-12-12T10:35:18.894Z,16.00
2022-12-12T10:38:00.041Z,20.00
2022-12-12T10:41:19.579Z,19.75
2022-12-12T10:44:11.622Z,20.00
2022-12-12T10:46:55.523Z,19.25
2022-12-12T10:49:24.868Z,20.00
2022-12-12T10:51:54.888Z,19.50
2022-12-12T10:54:27.563Z,19.00
2022-12-12T10:57:25.046Z,19.00
2022-12-12T10:59:58.201Z,20.67
2022-12-12T11:02:41.536Z,20.00
2022-12-12T11:05:31.903Z,20.25
2022-12-12T11:08:06.505Z,20.00
2022-12-12T11:10:37.537Z,20.00
2022-12-12T11:13:09.368Z,19.25
2022-12-12T11:15:57.825Z,20.00
2022-12-12T11:18:26.925Z,19.50
2022-12-12T11:21:09.156Z,21.00
2022-12-12T11:23:52.443Z,20.00
2022-12-12T11:26:22.105Z,22.00
2022-12-12T11:28:58.331Z,20.00
2022-12-12T11:31:31.629Z,19.00
2022-12-12T11:34:07.059Z,21.00
2022-12-12T11:36:38.104Z,21.00
2022-12-12T11:39:25.442Z,21.00
2022-12-12T11:42:18.187Z,22.25
2022-12-12T11:44:49.717Z,22.00
2022-12-12T11:47:26.801Z,21.33
2022-12-12T11:49:58.532Z,22.00
2022-12-12T11:52:30.525Z,22.00
2022-12-12T11:55:01.494Z,22.00
2022-12-12T11:58:08.038Z,21.00
2022-12-12T12:00:55.167Z,23.00
2022-12-12T12:03:26.071Z,21.00
2022-12-12T12:05:54.574Z,20.00
2022-12-12T12:08:40.574Z,20.00
2022-12-12T12:11:27.589Z,20.00
2022-12-12T12:14:14.494Z,20.50
2022-12-12T12:17:00.926Z,19.00
2022-12-12T12:19:53.033Z,19.00
2022-12-12T12:22:39.877Z,20.00
2022-12-12T12:25:33.617Z,20.00
2022-12-12T12:28:08.216Z,20.50
2022-12-12T12:31:06.164Z,19.25
2022-12-12T12:34:08.339Z,28.50
2022-12-12T12:37:03.597Z,24.00
2022-12-12T12:40:04.876Z,25.25
2022-12-12T12:43:01.845Z,25.00
2022-12-12T12:45:42.704Z,23.00
2022-12-12T12:48:16.745Z,22.33
2022-12-12T12:51:27.052Z,24.00
2022-12-12T12:54:02.714Z,20.33
2022-12-12T12:56:34.304Z,23.00
2022-12-12T12:59:10.323Z,21.00
2022-12-12T13:01:45.534Z,22.33
2022-12-12T13:04:19.138Z,22.00
2022-12-12T13:07:25.107Z,20.50
2022-12-12T13:10:18.426Z,20.33
2022-12-12T13:12:56.693Z,20.00
2022-12-12T13:15:35.382Z,22.25
2022-12-12T13:18:09.474Z,20.25
2022-12-12T13:20:44.161Z,18.50
2022-12-12T13:23:54.783Z,20.00
2022-12-12T13:27:20.578Z,19.00
2022-12-12T13:30:24.055Z,19.00
2022-12-12T13:33:06.647Z,19.25
2022-12-12T13:35:40.324Z,19.00
2022-12-12T13:38:24.373Z,18.25
2022-12-12T13:41:04.525Z,19.00
2022-12-12T13:43:38.676Z,18.00
2022-12-12T13:46:22.483Z,17.50
2022-12-12T13:49:12.403Z,17.50
2022-12-12T13:51:43.804Z,17.25
2022-12-12T13:54:14.149Z,19.00
2022-12-12T13:56:53.444Z,17.00
2022-12-12T13:59:27.344Z,17.00
2022-12-12T14:02:35.957Z,18.00
2022-12-12T14:05:11.123Z,18.25
2022-12-12T14:07:48.801Z,16.00
2022-12-12T14:10:24.483Z,17.25
2022-12-12T14:12:54.476Z,17.00
2022-12-12T14:15:34.202Z,17.00
2022-12-12T14:18:03.694Z,17.00
2022-12-12T14:20:35.305Z,18.25
2022-12-12T14:23:24.665Z,17.50
2022-12-12T14:25:53.706Z,16.00
2022-12-12T14:28:24.153Z,16.75
2022-12-12T14:31:03.121Z,17.00
2022-12-12T14:34:03.176Z,16.25
2022-12-12T14:37:09.095Z,17.00
2022-12-12T14:40:09.347Z,18.00
2022-12-12T14:43:19.522Z,16.00
2022-12-12T14:45:56.086Z,17.00
2022-12-12T14:48:31.881Z,15.00
2022-12-12T14:51:28.884Z,16.75
2022-12-12T14:54:00.516Z,17.00
2022-12-12T14:56:32.143Z,16.75
2022-12-12T14:59:06.231Z,15.75
2022-12-12T15:01:58.856Z,16.25
2022-12-12T15:04:30.894Z,16.00
2022-12-12T15:07:42.085Z,17.25
2022-12-12T15:10:26.236Z,18.00
2022-12-12T15:12:55.057Z,17.00
2022-12-12T15:15:29.053Z,16.33
2022-12-12T15:18:01.003Z,17.67
2022-12-12T15:20:30.927Z,17.25
2022-12-12T15:23:02.835Z,16.25
2022-12-12T15:25:41.608Z,17.00
2022-12-12T15:28:17.773Z,17.25
2022-12-12T15:30:48.227Z,17.75
2022-12-12T15:33:20.524Z,16.00
2022-12-12T15:36:02.526Z,17.00
2022-12-12T15:38:33.376Z,20.00
2022-12-12T15:41:08.016Z,19.00
2022-12-12T15:43:43.405Z,20.00
2022-12-12T15:46:15.894Z,21.00
2022-12-12T15:48:46.892Z,21.00
2022-12-12T15:51:21.107Z,19.50
2022-12-12T15:53:55.846Z,21.00
2022-12-12T15:56:29.251Z,19.25
2022-12-12T15:59:05.075Z,19.33
2022-12-12T16:01:33.623Z,19.25
2022-12-12T16:04:11.648Z,20.00
2022-12-12T16:06:44.996Z,20.25
2022-12-12T16:09:20.147Z,17.00
2022-12-12T16:11:58.467Z,20.00
2022-12-12T16:14:40.832Z,18.25
2022-12-12T16:17:18.114Z,19.00
2022-12-12T16:19:56.638Z,21.00
2022-12-12T16:22:35.410Z,22.25
2022-12-12T16:25:32.718Z,24.00
2022-12-12T16:28:12.503Z,23.25
2022-12-12T16:30:42.840Z,22.25
2022-12-12T16:33:13.828Z,21.50
2022-12-12T16:35:42.716Z,23.25
2022-12-12T16:38:16.514Z,20.33
2022-12-12T16:40:49.067Z,21.25
2022-12-12T16:43:20.335Z,19.25
2022-12-12T16:45:51.067Z,21.00
2022-12-12T16:48:29.660Z,21.00
2022-12-12T16:51:03.611Z,22.00
2022-12-12T16:53:32.027Z,21.00
2022-12-12T16:56:04.194Z,20.00
2022-12-12T16:58:33.979Z,21.50
2022-12-12T17:01:03.045Z,18.00
2022-12-12T17:03:33.048Z,19.00
2022-12-12T17:06:02.027Z,18.00
2022-12-12T17:08:30.419Z,20.00
2022-12-12T17:11:10.493Z,18.50
2022-12-12T17:13:48.456Z,19.50
2022-12-12T17:16:19.385Z,20.25
2022-12-12T17:18:51.103Z,20.25
2022-12-12T17:21:21.189Z,19.75
2022-12-12T17:23:50.086Z,19.25
2022-12-12T17:26:19.336Z,19.75
2022-12-12T17:28:47.582Z,19.00
2022-12-12T17:31:16.240Z,19.67
2022-12-12T17:33:50.503Z,20.00
2022-12-12T17:36:20.766Z,19.00
2022-12-12T17:38:49.494Z,20.00
2022-12-12T17:41:18.336Z,21.00
2022-12-12T17:43:52.069Z,20.25
2022-12-12T17:46:25.349Z,21.00
2022-12-12T17:48:56.741Z,19.00
2022-12-12T17:51:26.114Z,19.00
2022-12-12T17:53:55.018Z,19.00
2022-12-12T17:56:25.995Z,20.00
2022-12-12T17:58:54.829Z,18.50
2022-12-12T18:01:27.263Z,21.00
2022-12-12T18:03:56.673Z,21.00
2022-12-12T18:06:26.816Z,21.00
2022-12-12T18:08:55.233Z,23.00
2022-12-12T18:11:27.738Z,19.00
2022-12-12T18:13:58.146Z,20.00
2022-12-12T18:16:30.139Z,21.50
2022-12-12T18:18:59.186Z,20.75
2022-12-12T18:24:22.396Z,24.00
2022-12-12T18:26:55.606Z,26.00
2022-12-12T18:29:24.901Z,24.75
2022-12-12T18:31:54.311Z,25.33
2022-12-12T18:34:25.503Z,27.25
2022-12-12T18:36:54.340Z,27.25
2022-12-12T18:39:22.648Z,30.00
2022-12-12T18:41:52.791Z,28.25
2022-12-12T18:44:21.079Z,26.75
2022-12-12T18:46:52.514Z,30.25
2022-12-12T18:49:20.753Z,27.25
2022-12-12T18:51:49.639Z,26.00
2022-12-12T18:54:18.984Z,28.50
2022-12-12T18:56:47.825Z,28.00
2022-12-12T18:59:16.670Z,28.25
2022-12-12T19:01:45.497Z,25.00
2022-12-12T19:04:20.962Z,28.25
2022-12-12T19:06:53.576Z,27.33
2022-12-12T19:09:22.412Z,27.50
2022-12-12T19:11:58.284Z,28.00
2022-12-12T19:14:45.917Z,29.25
2022-12-12T19:17:25.887Z,28.67
2022-12-12T19:19:55.405Z,25.50
2022-12-12T19:22:44.421Z,28.25
2022-12-12T19:25:13.082Z,25.25
2022-12-12T19:27:41.828Z,28.00
2022-12-12T19:30:12.518Z,26.00
2022-12-12T19:32:41.505Z,28.00
2022-12-12T19:35:10.451Z,27.25
2022-12-12T19:37:38.946Z,26.00
2022-12-12T19:40:09.175Z,28.00
2022-12-12T19:42:38.290Z,27.25
2022-12-12T19:45:08.065Z,27.00
2022-12-12T19:47:36.801Z,28.75
2022-12-12T19:50:05.911Z,27.00
2022-12-12T19:52:34.502Z,27.00
2022-12-12T19:55:02.938Z,24.67
2022-12-12T19:57:31.614Z,25.00
2022-12-12T20:00:00.003Z,25.25
2022-12-12T20:02:29.790Z,26.25
2022-12-12T20:04:58.189Z,25.00
2022-12-12T20:07:28.425Z,24.00
2022-12-12T20:09:56.673Z,26.25
2022-12-12T20:12:25.783Z,24.25
2022-12-12T20:14:53.977Z,24.25
2022-12-12T20:17:24.193Z,27.25
2022-12-12T20:19:52.653Z,24.00
2022-12-12T20:22:22.403Z,24.50
2022-12-12T20:24:50.718Z,24.50
2022-12-12T20:27:19.513Z,23.00
2022-12-12T20:29:47.813Z,24.00
2022-12-12T20:32:20.912Z,26.00
2022-12-12T20:34:49.233Z,24.25
2022-12-12T20:37:20.335Z,23.00
2022-12-12T20:39:48.874Z,23.00
2022-12-12T20:42:17.405Z,23.75
2022-12-12T20:44:45.633Z,25.00
2022-12-12T20:47:17.452Z,24.00
2022-12-12T20:49:48.222Z,24.00
2022-12-12T20:52:17.560Z,25.25
2022-12-12T20:54:45.805Z,25.00
2022-12-12T20:57:14.335Z,23.75
2022-12-12T20:59:42.584Z,22.00
2022-12-12T21:02:11.952Z,24.00
2022-12-12T21:04:40.389Z,22.00
2022-12-12T21:07:10.032Z,23.00
2022-12-12T21:09:38.485Z,23.00
2022-12-12T21:12:08.423Z,24.00
2022-12-12T21:14:37.523Z,21.50
2022-12-12T21:17:07.861Z,22.00
2022-12-12T21:19:36.287Z,21.50
2022-12-12T21:22:06.044Z,22.25
2022-12-12T21:24:34.980Z,22.00
2022-12-12T21:27:05.116Z,21.00
2022-12-12T21:29:33.543Z,21.00
2022-12-12T21:32:02.316Z,23.25
2022-12-12T21:34:30.827Z,21.00
2022-12-12T21:36:59.584Z,22.33
2022-12-12T21:39:30.080Z,23.50
2022-12-12T21:41:58.907Z,21.00
2022-12-12T21:44:27.992Z,20.00
2022-12-12T21:46:57.909Z,22.67
2022-12-12T21:49:27.272Z,20.00
2022-12-12T21:51:59.227Z,22.75
2022-12-12T21:54:31.766Z,20.75
2022-12-12T21:57:01.363Z,19.00
2022-12-12T21:59:30.894Z,19.25
2022-12-12T22:02:01.356Z,21.00
2022-12-12T22:04:29.991Z,19.25
2022-12-12T22:06:58.891Z,21.00
2022-12-12T22:09:27.464Z,21.50
2022-12-12T22:12:03.392Z,19.00
2022-12-12T22:14:34.421Z,22.00
2022-12-12T22:17:05.411Z,20.00
2022-12-12T22:19:33.572Z,19.00
2022-12-12T22:22:02.355Z,21.00
2022-12-12T22:24:31.093Z,21.33
2022-12-12T22:26:59.808Z,18.50
2022-12-12T22:29:27.898Z,19.00
2022-12-12T22:31:57.404Z,18.75
2022-12-12T22:34:25.818Z,19.00
2022-12-12T22:36:56.091Z,19.25
2022-12-12T22:39:27.312Z,19.00
2022-12-12T22:41:57.542Z,19.00
2022-12-12T22:44:27.888Z,19.50
2022-12-12T22:46:57.760Z,20.75
2022-12-12T22:49:27.169Z,19.25
2022-12-12T22:51:57.894Z,18.00
2022-12-12T22:54:27.358Z,19.33
2022-12-12T22:56:57.053Z,19.25
2022-12-12T22:59:25.488Z,19.00
2022-12-12T23:01:55.302Z,19.00
2022-12-12T23:04:23.800Z,19.50
2022-12-12T23:06:52.359Z,19.50
2022-12-12T23:09:22.717Z,18.75
2022-12-12T23:11:51.532Z,18.00
2022-12-12T23:14:23.033Z,18.50
2022-12-12T23:16:52.053Z,18.00
2022-12-12T23:19:25.953Z,18.00
2022-12-12T23:21:54.696Z,19.00
2022-12-12T23:24:22.983Z,19.00
2022-12-12T23:26:52.853Z,18.00
2022-12-12T23:29:21.535Z,18.00
2022-12-12T23:31:51.904Z,18.00
2022-12-12T23:34:23.634Z,18.00
2022-12-12T23:36:54.337Z,17.67
2022-12-12T23:39:24.811Z,17.00
2022-12-12T23:41:54.465Z,18.25
2022-12-12T23:44:23.773Z,19.00
2022-12-12T23:46:53.064Z,18.25
2022-12-12T23:49:26.445Z,18.00
2022-12-12T23:51:59.212Z,16.25
2022-12-12T23:54:33.821Z,17.00
2022-12-12T23:57:03.071Z,18.00
2022-12-12T23:59:31.462Z,18.25
